createdAt,value
2022-08-30T00:00:43.482Z,102039.44
2022-08-30T00:03:15.158Z,102036.06
2022-08-30T00:05:45.453Z,102037.75
2022-08-30T00:08:14.895Z,102031.03
2022-08-30T00:10:45.938Z,102028.50
2022-08-30T00:13:15.765Z,102026.03
2022-08-30T00:15:47.505Z,102025.56
2022-08-30T00:18:18.494Z,102024.53
2022-08-30T00:20:49.642Z,102019.13
2022-08-30T00:23:20.282Z,102012.09
2022-08-30T00:25:50.641Z,102020.25
2022-08-30T00:28:20.169Z,102021.06
2022-08-30T00:30:51.048Z,102021.91
2022-08-30T00:33:20.446Z,102024.06
2022-08-30T00:35:50.446Z,102030.56
2022-08-30T00:38:19.842Z,102026.75
2022-08-30T00:40:49.795Z,102034.16
2022-08-30T00:43:23.518Z,102037.31
2022-08-30T00:45:54.970Z,102038.41
2022-08-30T00:48:24.866Z,102039.75
2022-08-30T00:50:56.883Z,102042.75
2022-08-30T00:53:28.933Z,102043.81
2022-08-30T00:56:00.745Z,102047.53
2022-08-30T00:58:35.087Z,102055.00
2022-08-30T01:01:07.739Z,102051.00
2022-08-30T01:03:39.672Z,102051.75
2022-08-30T01:06:09.866Z,102044.78
2022-08-30T01:08:39.425Z,102043.09
2022-08-30T01:11:09.336Z,102046.47
2022-08-30T01:13:39.131Z,102047.63
2022-08-30T01:16:10.235Z,102050.63
2022-08-30T01:18:39.937Z,102055.19
2022-08-30T01:21:16.275Z,102056.50
2022-08-30T01:23:50.224Z,102056.75
2022-08-30T01:26:22.105Z,102073.56
2022-08-30T01:28:56.192Z,102071.50
2022-08-30T01:31:25.573Z,102064.81
2022-08-30T01:33:54.778Z,102071.50
2022-08-30T01:36:25.205Z,102072.59
2022-08-30T01:38:57.882Z,102073.56
2022-08-30T01:41:29.056Z,102070.44
2022-08-30T01:44:00.986Z,102074.53
2022-08-30T01:46:36.066Z,102076.31
2022-08-30T01:49:08.453Z,102069.81
2022-08-30T01:51:38.902Z,102070.91
2022-08-30T01:54:09.760Z,102067.69
2022-08-30T01:56:39.306Z,102074.19
2022-08-30T01:59:08.636Z,102062.53
2022-08-30T02:01:39.999Z,102061.72
2022-08-30T02:04:11.809Z,102069.38
2022-08-30T02:06:41.338Z,102058.09
2022-08-30T02:09:12.781Z,102061.09
2022-08-30T02:11:41.917Z,102059.44
2022-08-30T02:14:10.970Z,102056.78
2022-08-30T02:16:40.666Z,102056.41
2022-08-30T02:19:10.077Z,102058.59
2022-08-30T02:21:42.127Z,102050.44
2022-08-30T02:24:12.950Z,102061.84
2022-08-30T02:26:42.474Z,102054.63
2022-08-30T02:29:11.782Z,102058.22
2022-08-30T02:31:40.766Z,102064.22
2022-08-30T02:34:09.800Z,102049.84
2022-08-30T02:36:40.720Z,102051.97
2022-08-30T02:39:13.315Z,102060.16
2022-08-30T02:41:43.862Z,102055.22
2022-08-30T02:44:13.257Z,102053.44
2022-08-30T02:46:42.801Z,102054.63
2022-08-30T02:52:01.129Z,102055.22
2022-08-30T02:54:33.280Z,102061.47
2022-08-30T02:57:04.813Z,102057.88
2022-08-30T02:59:37.751Z,102063.03
2022-08-30T03:02:08.369Z,102053.78
2022-08-30T03:04:39.007Z,102064.09
2022-08-30T03:07:08.443Z,102059.66
2022-08-30T03:09:39.409Z,102061.31
2022-08-30T03:12:09.969Z,102062.31
2022-08-30T03:14:40.325Z,102052.81
2022-08-30T03:17:15.502Z,102064.69
2022-08-30T03:19:46.188Z,102057.13
2022-08-30T03:22:15.454Z,102065.44
2022-08-30T03:24:46.496Z,102064.00
2022-08-30T03:27:15.602Z,102052.69
2022-08-30T03:29:44.686Z,102054.63
2022-08-30T03:32:13.862Z,102062.19
2022-08-30T03:34:43.071Z,102056.66
2022-08-30T03:37:12.464Z,102057.75
2022-08-30T03:39:41.689Z,102056.41
2022-08-30T03:42:12.120Z,102059.31
2022-08-30T03:44:41.312Z,102055.47
2022-08-30T03:47:10.627Z,102060.84
2022-08-30T03:49:39.905Z,102060.84
2022-08-30T03:52:08.997Z,102059.78
2022-08-30T03:54:38.653Z,102056.19
2022-08-30T03:57:08.190Z,102063.03
2022-08-30T03:59:43.801Z,102057.00
2022-08-30T04:02:13.089Z,102058.81
2022-08-30T04:04:42.349Z,102058.94
2022-08-30T04:07:11.503Z,102057.13
2022-08-30T04:09:41.803Z,102057.97
2022-08-30T04:12:10.947Z,102059.63
2022-08-30T04:14:40.273Z,102058.59
2022-08-30T04:17:13.376Z,102063.63
2022-08-30T04:19:42.549Z,102058.34
2022-08-30T04:22:12.090Z,102067.22
2022-08-30T04:24:41.609Z,102059.44
2022-08-30T04:27:10.908Z,102062.94
2022-08-30T04:29:40.418Z,102069.63
2022-08-30T04:32:11.247Z,102061.81
2022-08-30T04:34:40.438Z,102062.03
2022-08-30T04:37:09.836Z,102065.53
2022-08-30T04:39:39.325Z,102063.63
2022-08-30T04:42:10.722Z,102068.16
2022-08-30T04:44:39.992Z,102069.50
2022-08-30T04:47:09.692Z,102074.28
2022-08-30T04:49:40.538Z,102079.31
2022-08-30T04:52:10.939Z,102075.31
2022-08-30T04:54:40.162Z,102082.88
2022-08-30T04:57:09.571Z,102084.09
2022-08-30T04:59:40.352Z,102078.56
2022-08-30T05:02:12.154Z,102082.13
2022-08-30T05:04:59.110Z,102071.94
2022-08-30T05:07:28.256Z,102087.09
2022-08-30T05:09:57.519Z,102090.56
2022-08-30T05:12:27.642Z,102089.47
2022-08-30T05:14:58.338Z,102088.63
2022-08-30T05:17:27.625Z,102093.66
2022-08-30T05:19:59.170Z,102087.72
2022-08-30T05:22:29.473Z,102086.78
2022-08-30T05:25:01.246Z,102091.78
2022-08-30T05:27:31.514Z,102086.41
2022-08-30T05:30:01.094Z,102096.00
2022-08-30T05:32:31.489Z,102092.38
2022-08-30T05:35:02.318Z,102094.22
2022-08-30T05:37:31.404Z,102098.88
2022-08-30T05:40:01.198Z,102095.75
2022-08-30T05:42:31.227Z,102096.16
2022-08-30T05:45:00.438Z,102103.19
2022-08-30T05:47:29.689Z,102105.13
2022-08-30T05:49:58.735Z,102098.66
2022-08-30T05:52:29.238Z,102099.31
2022-08-30T05:55:00.011Z,102106.72
2022-08-30T05:57:29.064Z,102093.97
2022-08-30T05:59:58.257Z,102104.16
2022-08-30T06:02:28.304Z,102099.06
2022-08-30T06:04:57.537Z,102102.72
2022-08-30T06:07:28.556Z,102097.94
2022-08-30T06:09:57.724Z,102106.00
2022-08-30T06:12:26.924Z,102101.84
2022-08-30T06:14:56.015Z,102107.03
2022-08-30T06:17:25.183Z,102099.66
2022-08-30T06:19:54.491Z,102106.47
2022-08-30T06:22:23.601Z,102100.75
2022-08-30T06:24:57.459Z,102102.94
2022-08-30T06:27:28.468Z,102109.84
2022-08-30T06:29:57.559Z,102105.06
2022-08-30T06:32:26.627Z,102111.66
2022-08-30T06:34:55.726Z,102115.06
2022-08-30T06:37:29.549Z,102114.63
2022-08-30T06:40:01.513Z,102111.44
2022-08-30T06:42:33.966Z,102115.47
2022-08-30T06:45:10.291Z,102110.34
2022-08-30T06:47:41.223Z,102112.28
2022-08-30T06:50:12.255Z,102118.19
2022-08-30T06:52:43.041Z,102114.44
2022-08-30T06:55:16.634Z,102112.63
2022-08-30T06:57:45.775Z,102118.50
2022-08-30T07:00:17.878Z,102113.16
2022-08-30T07:02:47.117Z,102111.47
2022-08-30T07:05:18.930Z,102113.31
2022-08-30T07:07:48.333Z,102109.34
2022-08-30T07:10:19.124Z,102114.41
2022-08-30T07:12:48.313Z,102112.41
2022-08-30T07:15:20.487Z,102114.78
2022-08-30T07:18:07.604Z,102114.28
2022-08-30T07:20:40.624Z,102109.09
2022-08-30T07:23:10.875Z,102116.78
2022-08-30T07:25:42.508Z,102118.31
2022-08-30T07:28:12.193Z,102122.72
2022-08-30T07:30:43.022Z,102125.84
2022-08-30T07:33:12.411Z,102123.19
2022-08-30T07:35:41.628Z,102127.25
2022-08-30T07:38:15.136Z,102132.22
2022-08-30T07:40:45.858Z,102134.75
2022-08-30T07:43:15.056Z,102135.53
2022-08-30T07:45:44.278Z,102140.84
2022-08-30T07:48:13.652Z,102142.66
2022-08-30T07:50:47.148Z,102137.94
2022-08-30T07:53:16.395Z,102142.59
2022-08-30T07:55:46.962Z,102140.09
2022-08-30T07:58:16.247Z,102142.78
2022-08-30T08:00:45.955Z,102152.75
2022-08-30T08:03:15.091Z,102142.53
2022-08-30T08:05:46.401Z,102142.94
2022-08-30T08:08:16.188Z,102139.88
2022-08-30T08:10:47.094Z,102147.78
2022-08-30T08:13:16.321Z,102153.75
2022-08-30T08:15:46.570Z,102147.75
2022-08-30T08:18:15.813Z,102151.25
2022-08-30T08:20:45.040Z,102152.31
2022-08-30T08:23:14.305Z,102149.34
2022-08-30T08:25:43.497Z,102152.13
2022-08-30T08:28:14.032Z,102154.75
2022-08-30T08:30:47.593Z,102156.16
2022-08-30T08:33:17.992Z,102159.47
2022-08-30T08:35:47.285Z,102160.06
2022-08-30T08:38:16.491Z,102160.81
2022-08-30T08:40:56.653Z,102165.81
2022-08-30T08:43:28.060Z,102171.78
2022-08-30T08:46:02.122Z,102166.56
2022-08-30T08:48:58.582Z,102161.44
2022-08-30T08:51:46.895Z,102164.63
2022-08-30T08:54:22.436Z,102168.13
2022-08-30T08:56:51.624Z,102168.75
2022-08-30T08:59:22.128Z,102167.31
2022-08-30T09:01:51.692Z,102174.91
2022-08-30T09:04:25.578Z,102169.97
2022-08-30T09:06:59.282Z,102162.97
2022-08-30T09:09:31.345Z,102163.28
2022-08-30T09:12:01.369Z,102166.31
2022-08-30T09:14:35.880Z,102165.41
2022-08-30T09:17:06.940Z,102173.91
2022-08-30T09:19:40.107Z,102170.13
2022-08-30T09:22:17.896Z,102169.28
2022-08-30T09:24:49.364Z,102174.28
2022-08-30T09:27:24.081Z,102172.66
2022-08-30T09:30:01.642Z,102172.00
2022-08-30T09:32:34.054Z,102169.44
2022-08-30T09:35:04.464Z,102173.03
2022-08-30T09:37:38.368Z,102169.84
2022-08-30T09:40:14.763Z,102169.88
2022-08-30T09:42:59.269Z,102179.59
2022-08-30T09:45:34.815Z,102177.34
2022-08-30T09:48:23.995Z,102170.91
2022-08-30T09:51:04.635Z,102168.88
2022-08-30T09:53:37.011Z,102171.91
2022-08-30T09:56:11.446Z,102176.06
2022-08-30T09:58:57.514Z,102174.47
2022-08-30T10:01:33.958Z,102170.66
2022-08-30T10:04:15.228Z,102173.66
2022-08-30T10:06:52.621Z,102171.53
2022-08-30T10:09:34.707Z,102171.06
2022-08-30T10:12:12.780Z,102176.38
2022-08-30T10:14:59.790Z,102180.94
2022-08-30T10:17:43.486Z,102179.19
2022-08-30T10:20:24.479Z,102182.09
2022-08-30T10:23:00.363Z,102185.53
2022-08-30T10:25:35.097Z,102192.00
2022-08-30T10:28:11.138Z,102189.25
2022-08-30T10:30:46.401Z,102194.53
2022-08-30T10:33:25.397Z,102185.09
2022-08-30T10:35:58.453Z,102187.69
2022-08-30T10:38:32.109Z,102190.50
2022-08-30T10:41:14.711Z,102181.66
2022-08-30T10:43:51.143Z,102180.69
2022-08-30T10:46:29.279Z,102182.44
2022-08-30T10:49:03.188Z,102183.19
2022-08-30T10:51:40.195Z,102187.28
2022-08-30T10:54:18.738Z,102182.53
2022-08-30T10:56:52.405Z,102176.75
2022-08-30T10:59:22.625Z,102173.19
2022-08-30T11:02:20.576Z,102177.63
2022-08-30T11:05:23.665Z,102179.13
2022-08-30T11:08:01.580Z,102177.72
2022-08-30T11:10:49.600Z,102170.53
2022-08-30T11:13:22.916Z,102178.63
2022-08-30T11:16:00.837Z,102166.41
2022-08-30T11:18:33.081Z,102169.28
2022-08-30T11:21:27.257Z,102161.38
2022-08-30T11:24:10.767Z,102162.75
2022-08-30T11:27:01.825Z,102172.16
2022-08-30T11:29:47.563Z,102161.03
2022-08-30T11:32:58.383Z,102169.72
2022-08-30T11:35:47.312Z,102165.41
2022-08-30T11:38:43.691Z,102153.91
2022-08-30T11:41:15.131Z,102159.19
2022-08-30T11:43:55.604Z,102150.06
2022-08-30T11:46:41.000Z,102156.91
2022-08-30T11:49:55.431Z,102149.94
2022-08-30T11:52:48.883Z,102142.97
2022-08-30T11:55:38.924Z,102148.88
2022-08-30T11:58:24.036Z,102148.75
2022-08-30T12:01:40.811Z,102140.53
2022-08-30T12:04:15.425Z,102141.53
2022-08-30T12:06:52.409Z,102145.16
2022-08-30T12:10:04.751Z,102150.34
2022-08-30T12:12:51.588Z,102147.50
2022-08-30T12:15:50.297Z,102143.06
2022-08-30T12:18:29.655Z,102134.47
2022-08-30T12:21:04.899Z,102142.13
2022-08-30T12:23:44.441Z,102142.19
2022-08-30T12:26:20.109Z,102139.00
2022-08-30T12:28:52.414Z,102131.09
2022-08-30T12:31:24.499Z,102138.28
2022-08-30T12:34:00.767Z,102138.00
2022-08-30T12:36:36.396Z,102128.38
2022-08-30T12:39:14.088Z,102122.94
2022-08-30T12:41:44.387Z,102124.66
2022-08-30T12:44:19.677Z,102131.06
2022-08-30T12:46:54.899Z,102127.09
2022-08-30T12:49:31.781Z,102128.94
2022-08-30T12:52:16.937Z,102130.66
2022-08-30T12:54:46.323Z,102130.84
2022-08-30T12:57:35.577Z,102133.28
2022-08-30T13:00:09.041Z,102123.88
2022-08-30T13:02:47.426Z,102121.91
2022-08-30T13:05:45.492Z,102130.34
2022-08-30T13:08:20.133Z,102143.00
2022-08-30T13:11:05.825Z,102130.00
2022-08-30T13:13:41.259Z,102122.94
2022-08-30T13:16:29.515Z,102119.13
2022-08-30T13:19:26.899Z,102122.91
2022-08-30T13:21:58.596Z,102128.03
2022-08-30T13:24:28.045Z,102124.69
2022-08-30T13:27:00.790Z,102125.00
2022-08-30T13:29:31.874Z,102127.69
2022-08-30T13:32:02.765Z,102122.06
2022-08-30T13:34:33.096Z,102120.34
2022-08-30T13:37:03.537Z,102122.34
2022-08-30T13:39:34.075Z,102108.06
2022-08-30T13:44:56.407Z,102103.53
2022-08-30T13:47:34.794Z,102104.91
2022-08-30T13:50:05.394Z,102108.00
2022-08-30T13:52:34.781Z,102108.31
2022-08-30T13:55:04.574Z,102105.31
2022-08-30T14:00:25.035Z,102102.63
2022-08-30T14:02:57.754Z,102095.63
2022-08-30T14:05:50.187Z,102103.03
2022-08-30T14:11:16.276Z,102099.88
2022-08-30T14:16:42.879Z,102103.81
2022-08-30T14:19:14.692Z,102105.84
2022-08-30T14:21:48.873Z,102091.84
2022-08-30T14:24:19.977Z,102111.00
2022-08-30T14:26:51.448Z,102107.84
2022-08-30T14:29:23.017Z,102096.47
2022-08-30T14:31:53.790Z,102099.03
2022-08-30T14:34:24.477Z,102100.25
2022-08-30T14:36:53.847Z,102092.88
2022-08-30T14:39:23.655Z,102096.38
2022-08-30T14:41:55.490Z,102098.16
2022-08-30T14:44:25.649Z,102097.03
2022-08-30T14:46:55.550Z,102101.38
2022-08-30T14:49:26.230Z,102103.03
2022-08-30T14:51:56.391Z,102088.41
2022-08-30T14:54:29.959Z,102096.06
2022-08-30T14:56:59.744Z,102101.00
2022-08-30T14:59:30.072Z,102102.16
2022-08-30T15:01:59.140Z,102104.56
2022-08-30T15:04:30.147Z,102099.41
2022-08-30T15:07:00.279Z,102097.00
2022-08-30T15:09:29.402Z,102104.28
2022-08-30T15:12:01.273Z,102097.91
2022-08-30T15:14:32.898Z,102108.44
2022-08-30T15:17:03.256Z,102098.50
2022-08-30T15:19:34.053Z,102107.56
2022-08-30T15:22:06.132Z,102104.69
2022-08-30T15:24:35.751Z,102103.00
2022-08-30T15:27:06.149Z,102102.50
2022-08-30T15:29:36.099Z,102104.38
2022-08-30T15:32:06.466Z,102108.66
2022-08-30T15:34:36.998Z,102113.19
2022-08-30T15:37:07.697Z,102108.19
2022-08-30T15:39:37.697Z,102103.13
2022-08-30T15:42:09.859Z,102115.50
2022-08-30T15:44:38.955Z,102114.84
2022-08-30T15:47:08.427Z,102108.03
2022-08-30T15:49:39.048Z,102111.75
2022-08-30T15:52:08.600Z,102109.44
2022-08-30T15:54:37.995Z,102102.03
2022-08-30T15:57:07.523Z,102109.97
2022-08-30T15:59:37.001Z,102110.16
2022-08-30T16:02:06.322Z,102104.31
2022-08-30T16:04:36.329Z,102106.88
2022-08-30T16:07:07.902Z,102107.53
2022-08-30T16:09:38.418Z,102106.44
2022-08-30T16:12:09.927Z,102099.66
2022-08-30T16:14:39.279Z,102110.00
2022-08-30T16:17:10.260Z,102103.16
2022-08-30T16:19:39.863Z,102096.56
2022-08-30T16:22:11.285Z,102102.03
2022-08-30T16:24:40.847Z,102108.16
2022-08-30T16:27:11.943Z,102104.25
2022-08-30T16:29:43.227Z,102101.03
2022-08-30T16:32:13.517Z,102103.94
2022-08-30T16:34:45.527Z,102107.28
2022-08-30T16:37:18.468Z,102110.09
2022-08-30T16:39:51.684Z,102105.25
2022-08-30T16:42:22.695Z,102114.13
2022-08-30T16:44:55.002Z,102107.13
2022-08-30T16:47:26.280Z,102108.50
2022-08-30T16:49:56.532Z,102105.19
2022-08-30T16:52:28.786Z,102106.81
2022-08-30T16:54:59.337Z,102103.06
2022-08-30T16:57:31.311Z,102105.72
2022-08-30T17:00:03.013Z,102110.56
2022-08-30T17:02:34.221Z,102107.66
2022-08-30T17:05:05.795Z,102105.91
2022-08-30T17:07:38.048Z,102106.78
2022-08-30T17:10:11.443Z,102107.50
2022-08-30T17:12:43.724Z,102121.22
2022-08-30T17:15:16.904Z,102116.38
2022-08-30T17:17:46.871Z,102116.28
2022-08-30T17:20:18.548Z,102119.06
2022-08-30T17:22:50.025Z,102122.75
2022-08-30T17:25:21.559Z,102126.66
2022-08-30T17:27:50.847Z,102123.16
2022-08-30T17:30:19.987Z,102118.97
2022-08-30T17:32:49.557Z,102132.13
2022-08-30T17:35:18.623Z,102131.88
2022-08-30T17:37:49.285Z,102129.91
2022-08-30T17:40:20.863Z,102132.00
2022-08-30T17:42:50.480Z,102126.97
2022-08-30T17:45:19.993Z,102130.97
2022-08-30T17:47:49.255Z,102137.00
2022-08-30T17:50:19.561Z,102140.28
2022-08-30T17:52:50.744Z,102143.19
2022-08-30T17:55:20.592Z,102147.09
2022-08-30T17:57:50.937Z,102149.88
2022-08-30T18:00:20.507Z,102148.19
2022-08-30T18:02:51.072Z,102140.09
2022-08-30T18:05:24.631Z,102152.03
2022-08-30T18:07:55.970Z,102161.78
2022-08-30T18:13:15.062Z,102157.84
2022-08-30T18:15:44.479Z,102157.41
2022-08-30T18:18:13.758Z,102161.78
2022-08-30T18:20:43.029Z,102165.84
2022-08-30T18:23:17.203Z,102160.47
2022-08-30T18:25:55.667Z,102169.94
2022-08-30T18:28:25.639Z,102173.22
2022-08-30T18:30:57.087Z,102175.97
2022-08-30T18:33:27.066Z,102176.72
2022-08-30T18:35:58.130Z,102176.44
2022-08-30T18:38:29.793Z,102170.69
2022-08-30T18:41:04.263Z,102178.13
2022-08-30T18:43:34.318Z,102180.56
2022-08-30T18:46:09.605Z,102182.63
2022-08-30T18:48:40.365Z,102183.41
2022-08-30T18:51:14.024Z,102188.28
2022-08-30T18:53:45.761Z,102188.13
2022-08-30T18:56:16.578Z,102196.59
2022-08-30T18:58:47.450Z,102181.84
2022-08-30T19:01:22.631Z,102191.22
2022-08-30T19:03:52.697Z,102191.13
2022-08-30T19:06:21.854Z,102194.53
2022-08-30T19:08:52.561Z,102196.06
2022-08-30T19:11:21.857Z,102194.31
2022-08-30T19:13:52.787Z,102201.75
2022-08-30T19:16:22.873Z,102200.91
2022-08-30T19:18:55.195Z,102199.34
2022-08-30T19:21:24.800Z,102202.84
2022-08-30T19:23:55.723Z,102203.06
2022-08-30T19:26:27.412Z,102201.75
2022-08-30T19:28:56.837Z,102211.22
2022-08-30T19:31:25.914Z,102208.94
2022-08-30T19:33:55.357Z,102205.78
2022-08-30T19:36:24.957Z,102210.72
2022-08-30T19:38:56.077Z,102201.00
2022-08-30T19:41:25.378Z,102210.47
2022-08-30T19:43:54.486Z,102212.09
2022-08-30T19:46:24.075Z,102206.81
2022-08-30T19:48:53.876Z,102213.09
2022-08-30T19:51:23.010Z,102210.81
2022-08-30T19:53:52.884Z,102217.13
2022-08-30T19:56:29.454Z,102214.63
2022-08-30T19:58:58.968Z,102219.28
2022-08-30T20:01:33.625Z,102224.53
2022-08-30T20:04:06.847Z,102220.97
2022-08-30T20:06:37.042Z,102216.66
2022-08-30T20:09:07.036Z,102223.31
2022-08-30T20:11:46.058Z,102212.56
2022-08-30T20:14:19.141Z,102218.53
2022-08-30T20:16:49.768Z,102219.22
2022-08-30T20:19:21.919Z,102215.53
2022-08-30T20:22:04.290Z,102213.63
2022-08-30T20:24:26.632Z,102158.41
2022-08-30T20:24:38.330Z,102208.50
2022-08-30T20:27:10.209Z,102215.59
2022-08-30T20:29:40.238Z,102207.19
2022-08-30T20:32:10.145Z,102205.84
2022-08-30T20:34:40.631Z,102203.03
2022-08-30T20:37:10.654Z,102204.06
2022-08-30T20:39:42.740Z,102203.53
2022-08-30T20:42:13.768Z,102211.75
2022-08-30T20:44:44.490Z,102205.78
2022-08-30T20:47:13.716Z,102204.66
2022-08-30T20:49:43.379Z,102204.78
2022-08-30T20:52:13.390Z,102207.44
2022-08-30T20:54:42.993Z,102209.00
2022-08-30T20:57:14.967Z,102202.91
2022-08-30T20:59:44.322Z,102212.19
2022-08-30T21:02:15.090Z,102210.81
2022-08-30T21:04:44.200Z,102212.41
2022-08-30T21:07:13.637Z,102206.84
2022-08-30T21:09:42.931Z,102212.50
2022-08-30T21:12:13.577Z,102211.66
2022-08-30T21:14:42.954Z,102210.00
2022-08-30T21:17:11.997Z,102214.09
2022-08-30T21:19:43.975Z,102221.88
2022-08-30T21:22:13.556Z,102217.88
2022-08-30T21:24:43.023Z,102217.44
2022-08-30T21:27:14.836Z,102222.28
2022-08-30T21:29:44.338Z,102227.97
2022-08-30T21:32:13.686Z,102229.44
2022-08-30T21:34:56.840Z,102222.53
2022-08-30T21:37:26.084Z,102226.75
2022-08-30T21:39:55.737Z,102226.63
2022-08-30T21:42:26.278Z,102219.69
2022-08-30T21:44:55.492Z,102229.75
2022-08-30T21:47:24.766Z,102234.56
2022-08-30T21:49:53.952Z,102230.28
2022-08-30T21:52:23.089Z,102236.47
2022-08-30T21:54:52.350Z,102234.75
2022-08-30T21:57:21.579Z,102234.03
2022-08-30T21:59:52.507Z,102237.97
2022-08-30T22:02:22.482Z,102238.94
2022-08-30T22:04:51.795Z,102240.44
2022-08-30T22:07:20.846Z,102242.41
2022-08-30T22:09:49.906Z,102250.13
2022-08-30T22:12:19.102Z,102256.50
2022-08-30T22:14:48.279Z,102259.44
2022-08-30T22:17:18.863Z,102260.28
2022-08-30T22:19:47.918Z,102260.66
2022-08-30T22:22:17.024Z,102259.31
2022-08-30T22:24:46.040Z,102266.16
2022-08-30T22:27:15.793Z,102273.19
2022-08-30T22:29:45.023Z,102276.09
2022-08-30T22:32:14.165Z,102272.06
2022-08-30T22:34:46.307Z,102266.53
2022-08-30T22:37:15.919Z,102272.25
2022-08-30T22:39:45.010Z,102268.13
2022-08-30T22:42:14.109Z,102269.00
2022-08-30T22:44:43.193Z,102270.84
2022-08-30T22:47:12.242Z,102270.78
2022-08-30T22:49:42.721Z,102277.44
2022-08-30T22:52:12.746Z,102284.06
2022-08-30T22:54:41.830Z,102282.31
2022-08-30T22:57:14.736Z,102279.94
2022-08-30T22:59:44.017Z,102283.22
2022-08-30T23:02:13.173Z,102282.03
2022-08-30T23:04:43.749Z,102293.84
2022-08-30T23:07:12.797Z,102284.25
2022-08-30T23:09:41.884Z,102288.19
2022-08-30T23:12:10.965Z,102289.41
2022-08-30T23:14:40.237Z,102290.06
2022-08-30T23:17:09.240Z,102291.44
2022-08-30T23:19:38.427Z,102289.38
2022-08-30T23:22:08.810Z,102296.38
2022-08-30T23:24:55.223Z,102299.16
2022-08-30T23:27:42.709Z,102297.00
2022-08-30T23:30:30.833Z,102294.53
2022-08-30T23:33:17.739Z,102297.00
2022-08-30T23:36:04.541Z,102300.16
2022-08-30T23:38:52.540Z,102304.41
2022-08-30T23:41:39.089Z,102300.75
2022-08-30T23:44:25.903Z,102306.41
2022-08-30T23:47:12.676Z,102297.72
2022-08-30T23:49:59.492Z,102302.63
2022-08-30T23:52:45.957Z,102305.44
2022-08-30T23:55:33.959Z,102305.16
2022-08-30T23:58:20.715Z,102309.91
